createdAt,value
2023-03-19T00:00:53.231Z,59.35
2023-03-19T00:01:55.073Z,59.72
2023-03-19T00:02:56.795Z,59.37
2023-03-19T00:03:58.491Z,60.11
2023-03-19T00:05:00.251Z,59.34
2023-03-19T00:06:02.332Z,59.35
2023-03-19T00:07:03.830Z,59.77
2023-03-19T00:08:05.771Z,60.12
2023-03-19T00:09:07.367Z,60.18
2023-03-19T00:10:09.431Z,60.29
2023-03-19T00:11:13.392Z,59.44
2023-03-19T00:12:15.056Z,59.24
2023-03-19T00:13:17.014Z,59.37
2023-03-19T00:14:18.652Z,59.29
2023-03-19T00:15:20.387Z,60.26
2023-03-19T00:16:21.978Z,60.13
2023-03-19T00:17:23.591Z,59.82
2023-03-19T00:18:25.210Z,60.05
2023-03-19T00:19:27.373Z,60.87
2023-03-19T00:20:28.967Z,61.36
2023-03-19T00:21:31.248Z,61.49
2023-03-19T00:22:32.751Z,61.67
2023-03-19T00:23:35.351Z,62.11
2023-03-19T00:24:36.935Z,62.35
2023-03-19T00:25:38.453Z,63.36
2023-03-19T00:26:40.263Z,63.26
2023-03-19T00:27:42.257Z,64.31
2023-03-19T00:28:43.925Z,64.45
2023-03-19T00:29:45.476Z,64.86
2023-03-19T00:30:47.043Z,65.30
2023-03-19T00:31:49.154Z,65.51
2023-03-19T00:32:50.749Z,65.50
2023-03-19T00:33:52.369Z,66.52
2023-03-19T00:34:53.946Z,66.22
2023-03-19T00:35:55.636Z,65.92
2023-03-19T00:36:57.196Z,65.98
2023-03-19T00:37:58.814Z,66.18
2023-03-19T00:39:00.880Z,66.14
2023-03-19T00:40:02.502Z,66.31
2023-03-19T00:41:05.821Z,66.80
2023-03-19T00:42:07.671Z,66.87
2023-03-19T00:43:09.240Z,66.59
2023-03-19T00:44:10.785Z,66.29
2023-03-19T00:45:13.219Z,66.37
2023-03-19T00:46:14.786Z,65.87
2023-03-19T00:47:16.372Z,65.64
2023-03-19T00:48:17.892Z,65.33
2023-03-19T00:49:19.475Z,65.32
2023-03-19T00:50:21.034Z,65.12
2023-03-19T00:51:24.054Z,64.86
2023-03-19T00:52:25.790Z,64.85
2023-03-19T00:53:27.362Z,64.18
2023-03-19T00:54:28.991Z,64.29
2023-03-19T00:55:30.577Z,64.19
2023-03-19T00:56:32.210Z,65.22
2023-03-19T00:57:33.725Z,64.70
2023-03-19T00:58:35.648Z,64.67
2023-03-19T00:59:37.184Z,65.07
2023-03-19T01:00:39.173Z,65.27
2023-03-19T01:01:40.785Z,65.08
2023-03-19T01:02:42.347Z,64.35
2023-03-19T01:03:45.409Z,64.84
2023-03-19T01:04:49.902Z,64.71
2023-03-19T01:05:51.760Z,64.82
2023-03-19T01:06:53.355Z,64.90
2023-03-19T01:07:54.952Z,65.10
2023-03-19T01:08:56.664Z,65.46
2023-03-19T01:09:58.176Z,66.00
2023-03-19T01:11:11.896Z,65.79
2023-03-19T01:12:13.605Z,65.85
2023-03-19T01:13:15.333Z,65.91
2023-03-19T01:14:17.922Z,65.89
2023-03-19T01:15:19.629Z,65.54
2023-03-19T01:16:21.242Z,66.00
2023-03-19T01:17:22.988Z,66.02
2023-03-19T01:18:24.574Z,66.58
2023-03-19T01:19:26.536Z,67.12
2023-03-19T01:20:28.171Z,67.52
2023-03-19T01:21:31.200Z,68.07
2023-03-19T01:22:36.234Z,68.07
2023-03-19T01:23:37.849Z,67.70
2023-03-19T01:24:39.382Z,67.42
2023-03-19T01:25:40.958Z,67.00
2023-03-19T01:26:43.706Z,66.60
2023-03-19T01:27:45.342Z,66.16
2023-03-19T01:28:47.288Z,65.88
2023-03-19T01:29:48.842Z,65.92
2023-03-19T01:30:51.038Z,65.79
2023-03-19T01:31:52.700Z,64.97
2023-03-19T01:32:54.607Z,65.18
2023-03-19T01:33:56.311Z,65.01
2023-03-19T01:34:57.861Z,64.78
2023-03-19T01:36:03.217Z,64.61
2023-03-19T01:37:04.839Z,64.41
2023-03-19T01:38:06.457Z,64.85
2023-03-19T01:39:08.112Z,64.77
2023-03-19T01:40:13.261Z,64.93
2023-03-19T01:41:15.009Z,64.65
2023-03-19T01:42:17.007Z,63.99
2023-03-19T01:43:24.207Z,64.42
2023-03-19T01:44:35.244Z,64.21
2023-03-19T01:45:39.077Z,64.28
2023-03-19T01:46:41.243Z,64.66
2023-03-19T01:47:44.389Z,64.80
2023-03-19T01:48:53.354Z,64.43
2023-03-19T01:49:56.449Z,64.45
2023-03-19T01:50:59.456Z,64.42
2023-03-19T01:52:04.110Z,64.15
2023-03-19T01:53:06.760Z,63.90
2023-03-19T01:54:13.529Z,63.51
2023-03-19T01:55:15.289Z,63.63
2023-03-19T01:56:27.703Z,62.86
2023-03-19T01:57:31.226Z,63.12
2023-03-19T01:58:33.034Z,62.85
2023-03-19T01:59:45.221Z,62.76
2023-03-19T02:00:47.248Z,63.41
2023-03-19T02:02:15.098Z,63.26
2023-03-19T02:03:17.604Z,62.65
2023-03-19T02:04:19.758Z,62.91
2023-03-19T02:05:25.913Z,62.46
2023-03-19T02:06:30.250Z,62.96
2023-03-19T02:07:34.572Z,62.90
2023-03-19T02:08:36.859Z,62.70
2023-03-19T02:09:40.260Z,62.43
2023-03-19T02:10:44.562Z,62.88
2023-03-19T02:11:46.606Z,62.61
2023-03-19T02:12:49.050Z,63.35
2023-03-19T02:13:50.731Z,63.81
2023-03-19T02:14:52.793Z,62.97
2023-03-19T02:15:55.083Z,63.19
2023-03-19T02:16:56.983Z,62.98
2023-03-19T02:17:58.619Z,62.81
2023-03-19T02:19:01.406Z,62.04
2023-03-19T02:20:23.910Z,61.10
2023-03-19T02:21:25.760Z,61.52
2023-03-19T02:22:29.992Z,60.91
2023-03-19T02:23:55.549Z,61.23
2023-03-19T02:25:02.686Z,61.56
2023-03-19T02:26:24.811Z,61.10
2023-03-19T02:27:26.602Z,61.12
2023-03-19T02:28:28.902Z,61.50
2023-03-19T02:29:30.577Z,61.66
2023-03-19T02:30:34.546Z,61.53
2023-03-19T02:31:37.178Z,62.16
2023-03-19T02:32:38.767Z,60.92
2023-03-19T02:33:40.555Z,61.90
2023-03-19T02:34:43.651Z,61.91
2023-03-19T02:35:48.672Z,61.53
2023-03-19T02:37:02.597Z,61.82
2023-03-19T02:38:05.458Z,62.60
2023-03-19T02:39:21.536Z,62.64
2023-03-19T02:40:27.193Z,62.83
2023-03-19T02:41:31.569Z,63.23
2023-03-19T02:42:33.437Z,62.93
2023-03-19T02:43:38.363Z,63.03
2023-03-19T02:44:40.139Z,63.36
2023-03-19T02:45:41.987Z,62.94
2023-03-19T02:46:43.529Z,63.00
2023-03-19T02:47:45.215Z,62.55
2023-03-19T02:48:46.753Z,63.21
2023-03-19T02:49:48.299Z,63.90
2023-03-19T02:50:50.225Z,64.21
2023-03-19T02:51:51.859Z,64.59
2023-03-19T02:52:54.086Z,64.77
2023-03-19T02:53:55.721Z,65.51
2023-03-19T02:54:57.240Z,65.70
2023-03-19T02:55:58.796Z,66.27
2023-03-19T02:57:01.083Z,66.07
2023-03-19T02:58:02.675Z,66.71
2023-03-19T02:59:04.482Z,66.26
2023-03-19T03:00:07.755Z,66.79
2023-03-19T03:01:09.342Z,67.36
2023-03-19T03:02:11.206Z,68.01
2023-03-19T03:03:13.192Z,68.56
2023-03-19T03:04:16.674Z,69.26
2023-03-19T03:05:18.494Z,69.21
2023-03-19T03:06:20.097Z,68.80
2023-03-19T03:07:22.190Z,68.56
2023-03-19T03:08:23.813Z,68.63
2023-03-19T03:09:25.838Z,68.33
2023-03-19T03:10:27.525Z,68.01
2023-03-19T03:11:29.147Z,67.35
2023-03-19T03:12:31.627Z,67.08
2023-03-19T03:13:33.276Z,66.38
2023-03-19T03:14:35.215Z,65.88
2023-03-19T03:15:36.788Z,65.51
2023-03-19T03:16:38.416Z,64.60
2023-03-19T03:17:40.935Z,64.04
2023-03-19T03:18:42.506Z,64.10
2023-03-19T03:19:44.127Z,64.35
2023-03-19T03:20:45.715Z,63.63
2023-03-19T03:21:47.300Z,63.85
2023-03-19T03:22:49.116Z,63.85
2023-03-19T03:23:51.253Z,63.44
2023-03-19T03:24:52.794Z,63.68
2023-03-19T03:25:54.353Z,63.72
2023-03-19T03:26:56.252Z,63.55
2023-03-19T03:27:57.813Z,63.76
2023-03-19T03:28:59.396Z,63.67
2023-03-19T03:30:01.081Z,63.80
2023-03-19T03:31:02.762Z,63.85
2023-03-19T03:32:04.520Z,63.74
2023-03-19T03:33:07.277Z,63.32
2023-03-19T03:34:08.867Z,64.02
2023-03-19T03:35:11.231Z,63.83
2023-03-19T03:36:13.475Z,64.06
2023-03-19T03:37:15.033Z,64.38
2023-03-19T03:38:16.690Z,64.24
2023-03-19T03:39:19.121Z,63.53
2023-03-19T03:40:21.436Z,63.57
2023-03-19T03:41:23.060Z,63.71
2023-03-19T03:42:24.697Z,63.82
2023-03-19T03:43:26.567Z,63.31
2023-03-19T03:44:28.139Z,63.60
2023-03-19T03:45:29.738Z,62.87
2023-03-19T03:46:31.668Z,62.44
2023-03-19T03:47:33.183Z,62.45
2023-03-19T03:48:35.833Z,62.38
2023-03-19T03:49:37.356Z,62.15
2023-03-19T03:50:38.988Z,62.04
2023-03-19T03:51:41.195Z,62.62
2023-03-19T03:52:42.895Z,63.35
2023-03-19T03:53:44.714Z,63.43
2023-03-19T03:54:46.231Z,63.95
2023-03-19T03:55:47.834Z,64.05
2023-03-19T03:56:50.712Z,64.07
2023-03-19T03:57:52.261Z,64.12
2023-03-19T03:58:53.809Z,64.06
2023-03-19T03:59:55.363Z,64.69
2023-03-19T04:00:56.946Z,64.78
2023-03-19T04:01:58.664Z,64.99
2023-03-19T04:03:00.370Z,66.31
2023-03-19T04:04:02.757Z,66.68
2023-03-19T04:05:04.651Z,66.50
2023-03-19T04:06:06.224Z,66.83
2023-03-19T04:07:08.286Z,66.86
2023-03-19T04:08:10.654Z,67.15
2023-03-19T04:09:12.404Z,66.75
2023-03-19T04:10:15.475Z,66.74
2023-03-19T04:11:17.117Z,66.87
2023-03-19T04:12:18.706Z,66.84
2023-03-19T04:13:20.436Z,66.68
2023-03-19T04:14:22.377Z,66.40
2023-03-19T04:15:24.057Z,66.36
2023-03-19T04:16:25.707Z,66.35
2023-03-19T04:17:27.282Z,66.64
2023-03-19T04:18:28.845Z,67.10
2023-03-19T04:19:31.714Z,67.80
2023-03-19T04:20:33.600Z,67.96
2023-03-19T04:21:35.316Z,67.43
2023-03-19T04:22:36.898Z,66.93
2023-03-19T04:23:38.563Z,66.93
2023-03-19T04:24:40.653Z,66.88
2023-03-19T04:25:42.255Z,66.74
2023-03-19T04:26:43.848Z,66.81
2023-03-19T04:27:46.223Z,66.69
2023-03-19T04:28:47.751Z,67.31
2023-03-19T04:29:49.631Z,67.20
2023-03-19T04:30:51.529Z,67.12
2023-03-19T04:31:53.193Z,67.00
2023-03-19T04:32:54.889Z,66.72
2023-03-19T04:33:56.435Z,67.08
2023-03-19T04:34:58.674Z,66.93
2023-03-19T04:36:00.693Z,67.23
2023-03-19T04:37:02.275Z,66.91
2023-03-19T04:38:04.297Z,67.33
2023-03-19T04:39:06.152Z,67.05
2023-03-19T04:40:08.738Z,66.93
2023-03-19T04:41:10.914Z,66.60
2023-03-19T04:42:12.567Z,66.83
2023-03-19T04:43:14.456Z,67.48
2023-03-19T04:44:17.027Z,66.62
2023-03-19T04:45:18.591Z,67.25
2023-03-19T04:46:20.231Z,67.08
2023-03-19T04:47:22.165Z,67.55
2023-03-19T04:48:23.850Z,67.87
2023-03-19T04:49:26.034Z,68.37
2023-03-19T04:50:27.983Z,68.59
2023-03-19T04:51:29.535Z,68.92
2023-03-19T04:52:31.252Z,70.00
2023-03-19T04:53:33.019Z,70.45
2023-03-19T04:54:34.568Z,71.18
2023-03-19T04:55:36.072Z,71.05
2023-03-19T04:56:37.701Z,71.42
2023-03-19T04:57:39.221Z,71.65
2023-03-19T04:58:40.848Z,72.13
2023-03-19T04:59:42.803Z,72.39
2023-03-19T05:00:46.923Z,72.81
2023-03-19T05:01:48.541Z,73.32
2023-03-19T05:02:50.135Z,73.57
2023-03-19T05:03:51.734Z,73.92
2023-03-19T05:04:53.701Z,73.61
2023-03-19T05:05:55.301Z,73.85
2023-03-19T05:06:57.467Z,73.71
2023-03-19T05:07:59.251Z,73.27
2023-03-19T05:09:01.202Z,73.20
2023-03-19T05:10:03.066Z,73.30
2023-03-19T05:11:04.765Z,73.49
2023-03-19T05:12:06.895Z,73.41
2023-03-19T05:13:08.492Z,73.96
2023-03-19T05:14:10.084Z,73.24
2023-03-19T05:15:12.061Z,73.53
2023-03-19T05:16:13.990Z,73.04
2023-03-19T05:17:15.778Z,72.57
2023-03-19T05:18:17.313Z,72.51
2023-03-19T05:19:18.973Z,72.43
2023-03-19T05:20:20.619Z,72.12
2023-03-19T05:21:22.256Z,71.69
2023-03-19T05:22:24.127Z,71.27
2023-03-19T05:23:25.800Z,70.80
2023-03-19T05:24:27.532Z,70.62
2023-03-19T05:25:30.179Z,70.20
2023-03-19T05:26:32.363Z,70.27
2023-03-19T05:27:34.050Z,69.49
2023-03-19T05:28:35.659Z,69.35
2023-03-19T05:29:39.805Z,69.13
2023-03-19T05:30:43.248Z,68.65
2023-03-19T05:31:44.799Z,68.28
2023-03-19T05:32:46.844Z,68.92
2023-03-19T05:33:48.530Z,69.23
2023-03-19T05:34:50.174Z,69.57
2023-03-19T05:35:52.060Z,69.44
2023-03-19T05:36:53.557Z,68.69
2023-03-19T05:37:55.838Z,68.52
2023-03-19T05:38:57.380Z,68.40
2023-03-19T05:39:58.967Z,67.92
2023-03-19T05:41:07.041Z,67.68
2023-03-19T05:42:08.742Z,67.60
2023-03-19T05:43:11.706Z,67.25
2023-03-19T05:44:13.335Z,67.19
2023-03-19T05:45:15.090Z,67.60
2023-03-19T05:46:16.736Z,67.14
2023-03-19T05:47:18.341Z,67.09
2023-03-19T05:48:20.325Z,67.05
2023-03-19T05:49:22.224Z,66.50
2023-03-19T05:50:23.830Z,66.26
2023-03-19T05:51:25.663Z,66.70
2023-03-19T05:52:27.486Z,66.76
2023-03-19T05:53:29.751Z,66.75
2023-03-19T05:54:31.327Z,66.31
2023-03-19T05:55:32.974Z,66.47
2023-03-19T05:56:34.616Z,66.66
2023-03-19T05:57:36.306Z,66.91
2023-03-19T05:58:37.914Z,67.41
2023-03-19T05:59:39.437Z,66.77
2023-03-19T06:00:41.596Z,66.88
2023-03-19T06:01:43.159Z,67.17
2023-03-19T06:02:44.814Z,68.13
2023-03-19T06:03:46.470Z,67.84
2023-03-19T06:04:48.106Z,68.59
2023-03-19T06:05:50.878Z,68.95
2023-03-19T06:06:52.430Z,68.81
2023-03-19T06:07:53.981Z,69.93
2023-03-19T06:08:55.631Z,70.14
2023-03-19T06:09:57.257Z,70.64
2023-03-19T06:10:58.847Z,70.22
2023-03-19T06:12:00.392Z,69.36
2023-03-19T06:13:01.904Z,69.53
2023-03-19T06:14:03.581Z,69.64
2023-03-19T06:15:05.479Z,69.82
2023-03-19T06:16:07.426Z,70.01
2023-03-19T06:17:09.827Z,69.42
2023-03-19T06:18:11.402Z,69.22
2023-03-19T06:19:12.973Z,69.38
2023-03-19T06:20:14.591Z,69.76
2023-03-19T06:21:16.549Z,70.32
2023-03-19T06:22:18.122Z,69.70
2023-03-19T06:23:19.771Z,70.44
2023-03-19T06:24:21.341Z,70.92
2023-03-19T06:25:22.909Z,71.30
2023-03-19T06:26:27.582Z,71.20
2023-03-19T06:27:29.298Z,71.85
2023-03-19T06:28:30.843Z,71.28
2023-03-19T06:29:32.445Z,71.56
2023-03-19T06:30:34.714Z,71.51
2023-03-19T06:31:39.448Z,71.78
2023-03-19T06:32:41.818Z,71.39
2023-03-19T06:33:43.673Z,71.10
2023-03-19T06:34:45.334Z,71.11
2023-03-19T06:35:47.097Z,70.87
2023-03-19T06:36:48.769Z,70.70
2023-03-19T06:37:50.879Z,71.04
2023-03-19T06:38:52.510Z,71.10
2023-03-19T06:39:54.882Z,70.43
2023-03-19T06:40:56.493Z,69.49
2023-03-19T06:41:58.087Z,69.26
2023-03-19T06:42:59.677Z,68.62
2023-03-19T06:44:01.411Z,68.76
2023-03-19T06:45:03.632Z,67.72
2023-03-19T06:46:08.265Z,67.21
2023-03-19T06:47:11.266Z,67.40
2023-03-19T06:48:12.826Z,67.71
2023-03-19T06:49:14.388Z,67.00
2023-03-19T06:50:19.319Z,66.73
2023-03-19T06:51:21.245Z,67.48
2023-03-19T06:52:22.767Z,66.59
2023-03-19T06:53:24.364Z,66.28
2023-03-19T06:54:25.938Z,64.92
2023-03-19T06:55:27.470Z,65.06
2023-03-19T06:56:29.514Z,64.22
2023-03-19T06:57:31.057Z,62.31
2023-03-19T06:58:32.608Z,62.71
2023-03-19T06:59:34.169Z,61.15
2023-03-19T07:00:36.031Z,60.70
2023-03-19T07:01:37.960Z,60.59
2023-03-19T07:02:40.349Z,59.75
2023-03-19T07:03:41.958Z,59.10
2023-03-19T07:04:43.541Z,58.88
2023-03-19T07:05:45.138Z,58.98
2023-03-19T07:06:46.766Z,58.75
2023-03-19T07:07:48.367Z,58.21
2023-03-19T07:08:49.849Z,59.55
2023-03-19T07:09:52.172Z,58.98
2023-03-19T07:10:53.785Z,60.53
2023-03-19T07:11:55.284Z,59.48
2023-03-19T07:12:56.863Z,59.63
2023-03-19T07:13:58.451Z,59.86
2023-03-19T07:15:00.291Z,61.30
2023-03-19T07:16:02.850Z,61.53
2023-03-19T07:17:04.545Z,61.39
2023-03-19T07:18:06.302Z,60.17
2023-03-19T07:19:07.900Z,59.93
2023-03-19T07:20:10.313Z,59.62
2023-03-19T07:21:12.004Z,59.72
2023-03-19T07:22:13.640Z,59.04
2023-03-19T07:23:15.444Z,58.86
2023-03-19T07:24:17.080Z,57.76
2023-03-19T07:25:18.620Z,57.80
2023-03-19T07:26:20.394Z,57.25
2023-03-19T07:27:22.107Z,56.04
2023-03-19T07:28:23.685Z,55.32
2023-03-19T07:29:25.642Z,55.06
2023-03-19T07:30:27.291Z,56.22
2023-03-19T07:31:28.888Z,56.46
2023-03-19T07:32:30.656Z,55.46
2023-03-19T07:33:32.193Z,55.52
2023-03-19T07:34:33.774Z,54.07
2023-03-19T07:35:35.722Z,53.64
2023-03-19T07:36:37.301Z,54.45
2023-03-19T07:37:38.824Z,53.96
2023-03-19T07:38:43.455Z,54.51
2023-03-19T07:39:44.980Z,53.90
2023-03-19T07:41:00.894Z,52.39
2023-03-19T07:42:03.516Z,51.29
2023-03-19T07:43:05.327Z,51.07
2023-03-19T07:44:07.118Z,51.37
2023-03-19T07:45:09.269Z,49.59
2023-03-19T07:46:11.731Z,50.70
2023-03-19T07:47:27.921Z,50.07
2023-03-19T07:48:29.967Z,49.90
2023-03-19T07:49:31.671Z,49.31
2023-03-19T07:50:33.416Z,49.58
2023-03-19T07:51:35.387Z,49.81
2023-03-19T07:52:37.054Z,48.22
2023-03-19T07:53:38.615Z,48.89
2023-03-19T07:54:40.827Z,47.13
2023-03-19T07:55:42.468Z,47.34
2023-03-19T07:56:44.097Z,47.23
2023-03-19T07:57:45.662Z,46.29
2023-03-19T07:58:47.319Z,46.11
2023-03-19T07:59:49.200Z,45.30
2023-03-19T08:00:50.935Z,45.38
2023-03-19T08:01:52.520Z,46.76
2023-03-19T08:02:54.177Z,45.55
2023-03-19T08:03:55.738Z,45.08
2023-03-19T08:04:58.626Z,46.71
2023-03-19T08:06:00.248Z,47.38
2023-03-19T08:07:01.794Z,47.32
2023-03-19T08:08:03.516Z,47.24
2023-03-19T08:09:05.097Z,47.80
2023-03-19T08:10:08.132Z,48.33
2023-03-19T08:11:10.511Z,46.37
2023-03-19T08:12:12.240Z,47.64
2023-03-19T08:13:14.267Z,46.54
2023-03-19T08:14:19.306Z,50.85
2023-03-19T08:15:21.866Z,46.09
2023-03-19T08:16:23.698Z,52.70
2023-03-19T08:17:25.295Z,53.87
2023-03-19T08:18:27.307Z,46.52
2023-03-19T08:19:28.919Z,44.93
2023-03-19T08:20:31.909Z,46.53
2023-03-19T08:21:35.318Z,47.22
2023-03-19T08:22:38.580Z,48.74
2023-03-19T08:23:40.739Z,47.44
2023-03-19T08:24:42.306Z,47.32
2023-03-19T08:25:43.977Z,46.47
2023-03-19T08:26:45.588Z,45.66
2023-03-19T08:27:47.415Z,47.80
2023-03-19T08:28:49.063Z,46.83
2023-03-19T08:29:50.722Z,48.49
2023-03-19T08:30:52.355Z,47.63
2023-03-19T08:31:54.941Z,46.86
2023-03-19T08:32:57.477Z,46.47
2023-03-19T08:34:02.810Z,47.26
2023-03-19T08:35:06.118Z,48.16
2023-03-19T08:36:13.227Z,46.45
2023-03-19T08:37:15.074Z,46.81
2023-03-19T08:38:16.846Z,45.04
2023-03-19T08:39:19.233Z,44.30
2023-03-19T08:40:20.977Z,43.50
2023-03-19T08:41:23.429Z,44.36
2023-03-19T08:42:25.145Z,44.51
2023-03-19T08:43:26.732Z,43.84
2023-03-19T08:44:28.548Z,44.26
2023-03-19T08:45:30.191Z,43.19
2023-03-19T08:46:32.037Z,43.17
2023-03-19T08:47:33.700Z,43.62
2023-03-19T08:48:35.329Z,45.23
2023-03-19T08:49:37.035Z,42.45
2023-03-19T08:50:38.625Z,42.78
2023-03-19T08:51:40.571Z,42.92
2023-03-19T08:52:42.750Z,43.21
2023-03-19T08:53:44.328Z,42.01
2023-03-19T08:54:46.081Z,42.55
2023-03-19T08:55:55.172Z,42.40
2023-03-19T08:56:57.114Z,41.37
2023-03-19T08:57:58.714Z,41.01
2023-03-19T08:59:00.242Z,41.41
2023-03-19T09:00:05.680Z,42.88
2023-03-19T09:01:10.728Z,42.68
2023-03-19T09:02:12.524Z,40.53
2023-03-19T09:03:14.095Z,42.55
2023-03-19T09:04:16.114Z,42.70
2023-03-19T09:05:23.333Z,42.45
2023-03-19T09:06:25.175Z,43.06
2023-03-19T09:07:26.870Z,42.34
2023-03-19T09:08:29.368Z,41.31
2023-03-19T09:11:47.229Z,40.69
2023-03-19T09:12:48.769Z,41.11
2023-03-19T09:13:50.546Z,41.92
2023-03-19T09:14:52.148Z,39.78
2023-03-19T09:15:54.076Z,41.17
2023-03-19T09:16:55.849Z,40.02
2023-03-19T09:17:57.447Z,40.31
2023-03-19T09:18:59.557Z,39.70
2023-03-19T09:20:01.148Z,39.43
2023-03-19T09:21:03.554Z,41.13
2023-03-19T09:22:06.102Z,41.06
2023-03-19T09:23:08.228Z,41.25
2023-03-19T09:24:09.942Z,40.78
2023-03-19T09:25:11.942Z,40.59
2023-03-19T09:26:13.512Z,41.73
2023-03-19T09:27:15.677Z,41.50
2023-03-19T09:28:17.582Z,41.10
2023-03-19T09:29:19.319Z,40.89
2023-03-19T09:30:21.833Z,40.02
2023-03-19T09:31:23.930Z,40.35
2023-03-19T09:32:25.848Z,38.77
2023-03-19T09:33:27.417Z,38.68
2023-03-19T09:34:29.003Z,38.26
2023-03-19T09:35:31.517Z,39.41
2023-03-19T09:36:33.534Z,40.07
2023-03-19T09:37:35.606Z,39.73
2023-03-19T09:38:37.230Z,39.24
2023-03-19T09:39:38.969Z,39.57
2023-03-19T09:40:46.968Z,40.35
2023-03-19T09:42:06.915Z,40.45
2023-03-19T09:43:19.896Z,40.95
2023-03-19T09:44:39.910Z,39.96
2023-03-19T09:45:41.576Z,40.11
2023-03-19T09:46:52.741Z,38.54
2023-03-19T09:48:01.657Z,38.22
2023-03-19T09:49:11.549Z,39.27
2023-03-19T09:50:14.439Z,38.75
2023-03-19T09:51:26.201Z,38.55
2023-03-19T09:52:30.466Z,37.88
2023-03-19T09:53:47.263Z,39.42
2023-03-19T09:54:55.855Z,37.85
2023-03-19T09:56:00.211Z,36.08
2023-03-19T09:57:02.019Z,37.03
2023-03-19T09:58:13.720Z,36.68
2023-03-19T09:59:15.372Z,36.80
2023-03-19T10:00:27.601Z,35.96
2023-03-19T10:01:35.415Z,36.12
2023-03-19T10:02:42.754Z,35.59
2023-03-19T10:04:06.789Z,36.06
2023-03-19T10:05:23.722Z,36.48
2023-03-19T10:06:29.619Z,36.38
2023-03-19T10:07:57.935Z,35.28
2023-03-19T10:09:21.463Z,35.23
2023-03-19T10:10:56.206Z,36.01
2023-03-19T10:12:03.775Z,36.45
2023-03-19T10:13:27.269Z,35.59
2023-03-19T10:15:02.988Z,37.39
2023-03-19T10:16:06.422Z,37.33
2023-03-19T10:17:14.960Z,36.42
2023-03-19T10:18:19.811Z,35.91
2023-03-19T10:19:50.329Z,35.27
2023-03-19T10:21:01.203Z,32.88
2023-03-19T10:22:12.384Z,32.37
2023-03-19T10:23:46.883Z,32.25
2023-03-19T10:24:50.459Z,31.93
2023-03-19T10:25:55.850Z,32.01
2023-03-19T10:27:19.871Z,33.29
2023-03-19T10:28:22.444Z,35.31
2023-03-19T10:29:24.893Z,34.84
2023-03-19T10:30:26.679Z,35.64
2023-03-19T10:31:43.317Z,33.75
2023-03-19T10:32:53.956Z,33.56
2023-03-19T10:34:04.194Z,36.62
2023-03-19T10:35:16.879Z,35.20
2023-03-19T10:36:21.620Z,35.03
2023-03-19T10:37:27.025Z,33.29
2023-03-19T10:38:28.826Z,33.15
2023-03-19T10:39:35.949Z,32.07
2023-03-19T10:40:49.114Z,32.23
2023-03-19T10:42:00.908Z,32.41
2023-03-19T10:43:21.031Z,32.93
2023-03-19T10:44:33.249Z,33.62
2023-03-19T10:45:38.795Z,34.80
2023-03-19T10:46:41.303Z,34.72
2023-03-19T10:47:43.771Z,35.98
2023-03-19T10:48:46.819Z,34.30
2023-03-19T10:49:50.591Z,35.43
2023-03-19T10:51:06.118Z,35.24
2023-03-19T10:52:20.691Z,35.51
2023-03-19T10:53:37.989Z,37.34
2023-03-19T10:54:43.638Z,37.01
2023-03-19T10:55:53.804Z,37.80
2023-03-19T10:56:57.452Z,37.07
2023-03-19T10:58:17.375Z,35.94
2023-03-19T10:59:39.451Z,35.24
2023-03-19T11:00:41.204Z,35.19
2023-03-19T11:01:43.244Z,34.03
2023-03-19T11:02:51.541Z,33.76
2023-03-19T11:03:58.241Z,32.17
2023-03-19T11:05:09.212Z,32.33
2023-03-19T11:06:20.288Z,35.51
2023-03-19T11:07:24.848Z,32.87
2023-03-19T11:08:35.567Z,33.34
2023-03-19T11:09:40.304Z,33.04
2023-03-19T11:10:47.102Z,33.54
2023-03-19T11:11:52.074Z,34.32
2023-03-19T11:13:16.056Z,32.09
2023-03-19T11:14:39.195Z,31.43
2023-03-19T11:15:41.236Z,31.06
2023-03-19T11:16:55.018Z,30.58
2023-03-19T11:18:06.167Z,30.80
2023-03-19T11:19:20.309Z,31.07
2023-03-19T11:20:28.120Z,31.15
2023-03-19T11:21:32.959Z,31.87
2023-03-19T11:22:39.376Z,32.69
2023-03-19T11:23:42.788Z,30.50
2023-03-19T11:24:56.381Z,30.32
2023-03-19T11:26:04.450Z,30.44
2023-03-19T11:27:08.149Z,29.75
2023-03-19T11:28:12.969Z,31.47
2023-03-19T11:29:14.563Z,30.97
2023-03-19T11:30:19.810Z,29.49
2023-03-19T11:31:34.052Z,29.46
2023-03-19T11:32:53.650Z,29.88
2023-03-19T11:34:26.306Z,28.95
2023-03-19T11:36:08.868Z,31.72
2023-03-19T11:37:29.311Z,33.44
2023-03-19T11:38:53.066Z,30.86
2023-03-19T11:40:16.130Z,33.34
2023-03-19T11:41:23.900Z,33.95
2023-03-19T11:42:53.993Z,35.29
2023-03-19T11:44:16.454Z,32.91
2023-03-19T11:45:40.784Z,31.91
2023-03-19T11:47:17.840Z,31.70
2023-03-19T11:48:44.401Z,32.45
2023-03-19T11:50:18.005Z,33.14
2023-03-19T11:51:28.799Z,31.23
2023-03-19T11:52:41.769Z,34.27
2023-03-19T11:54:09.738Z,35.72
2023-03-19T11:55:39.337Z,35.59
2023-03-19T11:56:44.875Z,32.83
2023-03-19T11:58:01.662Z,32.09
2023-03-19T11:59:27.349Z,32.08
2023-03-19T12:00:48.956Z,32.35
2023-03-19T12:02:06.537Z,33.87
2023-03-19T12:03:39.135Z,31.37
2023-03-19T12:04:50.981Z,32.86
2023-03-19T12:06:00.026Z,31.73
2023-03-19T12:07:24.764Z,33.15
2023-03-19T12:08:26.581Z,33.75
2023-03-19T12:09:38.216Z,34.31
2023-03-19T12:10:42.780Z,34.09
2023-03-19T12:11:54.736Z,33.86
2023-03-19T12:13:17.971Z,33.13
2023-03-19T12:14:25.602Z,32.73
2023-03-19T12:15:53.845Z,33.90
2023-03-19T12:17:04.950Z,32.74
2023-03-19T12:18:20.342Z,32.80
2023-03-19T12:19:47.829Z,35.06
2023-03-19T12:21:07.964Z,33.19
2023-03-19T12:22:21.839Z,31.68
2023-03-19T12:23:29.874Z,29.83
2023-03-19T12:24:59.753Z,29.83
2023-03-19T12:26:34.931Z,31.04
2023-03-19T12:27:42.845Z,33.43
2023-03-19T12:29:23.606Z,32.80
2023-03-19T12:30:57.439Z,33.00
2023-03-19T12:32:17.532Z,30.89
2023-03-19T12:33:24.862Z,31.39
2023-03-19T12:34:34.264Z,31.10
2023-03-19T12:35:41.996Z,31.97
2023-03-19T12:36:54.969Z,32.53
2023-03-19T12:38:00.004Z,30.22
2023-03-19T12:39:11.442Z,30.31
2023-03-19T12:40:41.966Z,31.74
2023-03-19T12:41:47.360Z,32.78
2023-03-19T12:42:48.890Z,30.45
2023-03-19T12:44:14.985Z,32.64
2023-03-19T12:45:28.518Z,33.83
2023-03-19T12:46:44.243Z,31.71
2023-03-19T12:47:47.835Z,31.63
2023-03-19T12:48:54.959Z,31.55
2023-03-19T12:50:04.666Z,33.69
2023-03-19T12:51:11.754Z,33.30
2023-03-19T12:52:33.990Z,33.01
2023-03-19T12:53:56.584Z,33.02
2023-03-19T12:55:01.406Z,31.35
2023-03-19T12:56:17.502Z,32.21
2023-03-19T12:57:32.611Z,32.76
2023-03-19T12:58:46.885Z,32.44
2023-03-19T12:59:58.926Z,32.48
2023-03-19T13:01:14.747Z,32.35
2023-03-19T13:02:25.258Z,32.11
2023-03-19T13:03:44.648Z,31.90
2023-03-19T13:05:25.282Z,32.54
2023-03-19T13:06:29.583Z,32.19
2023-03-19T13:07:51.941Z,32.82
2023-03-19T13:09:11.736Z,32.39
2023-03-19T13:10:19.175Z,31.37
2023-03-19T13:11:26.685Z,31.40
2023-03-19T13:12:32.061Z,31.26
2023-03-19T13:13:53.819Z,31.88
2023-03-19T13:14:59.870Z,31.69
2023-03-19T13:16:29.510Z,32.01
2023-03-19T13:17:42.666Z,31.53
2023-03-19T13:18:50.269Z,31.46
2023-03-19T13:19:54.416Z,31.30
2023-03-19T13:21:18.680Z,31.30
2023-03-19T13:22:27.605Z,30.52
2023-03-19T13:23:34.144Z,30.47
2023-03-19T13:24:41.632Z,30.64
2023-03-19T13:25:48.039Z,31.76
2023-03-19T13:26:50.459Z,31.14
2023-03-19T13:27:54.306Z,32.09
2023-03-19T13:29:07.840Z,31.86
2023-03-19T13:30:09.495Z,34.06
2023-03-19T13:31:23.922Z,33.67
2023-03-19T13:32:34.457Z,33.08
2023-03-19T13:33:38.806Z,32.83
2023-03-19T13:34:40.706Z,33.69
2023-03-19T13:35:56.019Z,33.26
2023-03-19T13:37:14.969Z,32.33
2023-03-19T13:38:25.749Z,31.73
2023-03-19T13:39:33.472Z,31.69
2023-03-19T13:40:50.771Z,31.31
2023-03-19T13:42:04.691Z,30.51
2023-03-19T13:43:28.571Z,31.54
2023-03-19T13:44:51.061Z,31.13
2023-03-19T13:45:54.794Z,30.43
2023-03-19T13:46:56.511Z,30.47
2023-03-19T13:48:24.608Z,30.55
2023-03-19T13:49:28.038Z,30.81
2023-03-19T13:50:30.803Z,31.09
2023-03-19T13:51:33.067Z,30.25
2023-03-19T13:52:50.155Z,29.73
2023-03-19T13:54:01.262Z,30.38
2023-03-19T13:55:24.384Z,30.50
2023-03-19T13:56:30.596Z,30.90
2023-03-19T13:57:35.969Z,30.23
2023-03-19T13:58:52.884Z,30.52
2023-03-19T13:59:54.517Z,29.99
2023-03-19T14:00:59.703Z,30.50
2023-03-19T14:02:20.800Z,30.45
2023-03-19T14:03:25.436Z,30.70
2023-03-19T14:04:32.817Z,30.47
2023-03-19T14:05:37.712Z,30.84